Time;durP1;ratioP1;P1;durP2;ratioP2;P2;SDS_P1;SDS_P2;PMS_P1;PMS_P2;Temp;Humidity;BMP_temperature;BMP_pressure;BME280_temperature;BME280_humidity;BME280_pressure;Samples;Min_cycle;Max_cycle;Signal;HPM_P1;HPM_P2
2022/11/16 00:01:45;;;;;;;;;;;;;;;12.83;54.92;99862.47;4980723;28;113014;-67
2022/11/16 00:04:11;;;;;;;;;;;;;;;12.82;54.61;99858.94;4970620;28;126801;-67
2022/11/16 00:06:37;;;;;;;;;;;;;;;12.82;54.73;99855.44;4996764;28;98038;-67
2022/11/16 00:09:22;;;;;;;;;;;;;;;12.81;54.93;99851.13;4986872;28;99378;-63
2022/11/16 00:11:48;;;;;;;;;;;;;;;12.79;54.81;99848.72;4982931;27;97877;-63
2022/11/16 00:14:14;;;;;;;;;;;;;;;12.78;54.80;99841.72;4980188;28;122558;-66
2022/11/16 00:16:40;;;;;;;;;;;;;;;12.77;54.65;99837.38;4982325;28;128035;-63
2022/11/16 00:19:06;;;;;;;;;;;;;;;12.77;54.87;99840.09;4982343;28;127774;-67
2022/11/16 00:21:32;;;;;;;;;;;;;;;12.76;54.70;99846.59;4985631;28;98130;-62
2022/11/16 00:23:58;;;;;;;;;;;;;;;12.75;54.81;99842.31;4989966;28;98963;-63
2022/11/16 00:26:24;;;;;;;;;;;;;;;12.73;54.58;99844.47;4987320;28;127330;-67
2022/11/16 00:28:51;;;;;;;;;;;;;;;12.73;54.68;99839.06;4981260;28;126833;-66
2022/11/16 00:31:17;;;;;;;;;;;;;;;12.71;54.61;99852.09;4982478;28;99815;-67
2022/11/16 00:33:43;;;;;;;;;;;;;;;12.71;54.67;99855.59;4982063;28;98185;-66
2022/11/16 00:36:10;;;;;;;;;;;;;;;12.69;54.47;99854.28;4964675;28;127290;-66
2022/11/16 00:38:36;;;;;;;;;;;;;;;12.69;54.62;99854.28;4979813;28;123570;-63
2022/11/16 00:41:02;;;;;;;;;;;;;;;12.69;54.64;99859.69;4982208;28;101779;-66
2022/11/16 00:43:28;;;;;;;;;;;;;;;12.68;54.85;99852.69;4996094;28;108869;-64
2022/11/16 00:45:53;;;;;;;;;;;;;;;12.66;54.66;99858.41;4980438;28;128068;-67
2022/11/16 00:48:19;;;;;;;;;;;;;;;12.65;54.71;99855.97;4980038;28;126664;-63
2022/11/16 00:50:45;;;;;;;;;;;;;;;12.65;54.66;99847.88;4981954;28;114692;-67
2022/11/16 00:53:12;;;;;;;;;;;;;;;12.67;54.81;99843.78;4962282;28;110686;-62
2022/11/16 00:55:38;;;;;;;;;;;;;;;12.74;54.65;99848.81;4969831;28;120661;-67
2022/11/16 00:58:04;;;;;;;;;;;;;;;12.80;54.65;99852.22;4979723;28;124692;-63
2022/11/16 01:00:30;;;;;;;;;;;;;;;12.86;54.89;99853.75;4981197;28;103350;-67
2022/11/16 01:02:56;;;;;;;;;;;;;;;12.88;54.63;99855.03;4982757;28;125328;-62
2022/11/16 01:05:22;;;;;;;;;;;;;;;12.93;54.77;99841.44;4982365;28;127069;-66
2022/11/16 01:07:48;;;;;;;;;;;;;;;12.95;54.85;99838.44;4963603;28;98071;-63
2022/11/16 01:10:15;;;;;;;;;;;;;;;12.96;54.53;99832.72;4958249;28;98137;-62
2022/11/16 01:12:42;;;;;;;;;;;;;;;12.99;54.73;99836.75;4964782;28;98163;-66
2022/11/16 01:15:08;;;;;;;;;;;;;;;12.99;54.58;99815.09;4969712;28;121967;-62
2022/11/16 01:17:35;;;;;;;;;;;;;;;13.01;54.97;99826.44;4984376;28;119997;-66
2022/11/16 01:20:03;;;;;;;;;;;;;;;13.01;54.72;99811.00;4982808;28;97834;-62
2022/11/16 01:22:29;;;;;;;;;;;;;;;13.01;54.53;99812.91;4981829;28;98894;-62
2022/11/16 01:24:55;;;;;;;;;;;;;;;13.01;55.00;99813.72;4982098;28;127648;-62
2022/11/16 01:27:20;;;;;;;;;;;;;;;13.00;54.93;99816.69;4981645;28;127117;-62
2022/11/16 01:29:46;;;;;;;;;;;;;;;12.98;54.59;99813.50;4981897;28;116772;-67
2022/11/16 01:32:12;;;;;;;;;;;;;;;12.98;54.67;99813.50;4980176;28;125344;-63
2022/11/16 01:34:38;;;;;;;;;;;;;;;12.97;54.82;99801.09;4980992;28;128008;-66
2022/11/16 01:37:04;;;;;;;;;;;;;;;12.95;54.91;99797.84;4980285;27;119010;-67
2022/11/16 01:39:30;;;;;;;;;;;;;;;12.93;54.95;99800.88;4981598;28;116597;-67
2022/11/16 01:41:56;;;;;;;;;;;;;;;12.92;54.95;99795.75;4957127;28;128141;-63
2022/11/16 01:44:31;;;;;;;;;;;;;;;12.90;54.67;99793.34;4962700;28;127867;-63
2022/11/16 01:46:58;;;;;;;;;;;;;;;12.89;54.79;99797.16;4979692;28;98206;-67
2022/11/16 01:49:26;;;;;;;;;;;;;;;12.88;54.90;99795.53;4980954;28;117445;-63
2022/11/16 01:51:54;;;;;;;;;;;;;;;12.87;55.01;99799.34;4963059;28;103425;-63
2022/11/16 01:54:20;;;;;;;;;;;;;;;12.86;54.68;99796.97;4948141;28;125385;-67
2022/11/16 01:56:46;;;;;;;;;;;;;;;12.85;55.01;99793.44;4965310;28;127972;-66
2022/11/16 01:59:12;;;;;;;;;;;;;;;12.84;54.77;99789.13;4992888;28;97826;-63
2022/11/16 02:01:38;;;;;;;;;;;;;;;12.84;54.90;99788.31;4964589;28;127311;-66
2022/11/16 02:04:04;;;;;;;;;;;;;;;12.82;54.65;99777.81;4980863;28;129005;-63
2022/11/16 02:07:08;;;;;;;;;;;;;;;12.82;54.84;99788.63;4978806;28;114233;-63
2022/11/16 02:09:56;;;;;;;;;;;;;;;12.82;54.50;99791.34;4982618;28;97821;-63
2022/11/16 02:12:49;;;;;;;;;;;;;;;12.81;54.81;99794.31;4981921;28;99054;-66
2022/11/16 02:15:27;;;;;;;;;;;;;;;12.78;54.86;99785.72;4979874;28;98513;-62
2022/11/16 02:18:13;;;;;;;;;;;;;;;12.77;54.51;99781.41;4963812;28;97891;-63
2022/11/16 02:21:00;;;;;;;;;;;;;;;12.76;54.49;99779.00;4967005;28;98188;-63
2022/11/16 02:23:44;;;;;;;;;;;;;;;12.75;54.58;99780.09;4979258;28;98530;-66
2022/11/16 02:26:34;;;;;;;;;;;;;;;12.74;54.79;99787.41;4978417;28;98387;-67
2022/11/16 02:29:22;;;;;;;;;;;;;;;12.72;54.82;99773.38;4980029;28;124554;-67
2022/11/16 02:32:04;;;;;;;;;;;;;;;12.71;54.81;99774.50;4947100;28;113709;-63
2022/11/16 02:34:52;;;;;;;;;;;;;;;12.71;54.53;99773.69;4966787;28;98863;-66
2022/11/16 02:37:19;;;;;;;;;;;;;;;12.68;54.75;99760.75;4942351;28;98536;-62
2022/11/16 02:39:45;;;;;;;;;;;;;;;12.68;54.78;99758.06;4972520;28;99496;-66
2022/11/16 02:42:13;;;;;;;;;;;;;;;12.67;54.83;99765.38;4969757;28;117851;-63
2022/11/16 02:44:41;;;;;;;;;;;;;;;12.66;54.86;99752.16;4970152;28;125166;-62
2022/11/16 02:47:08;;;;;;;;;;;;;;;12.65;54.55;99756.72;4951397;28;123849;-63
2022/11/16 02:49:35;;;;;;;;;;;;;;;12.64;54.67;99762.44;4967025;28;124126;-63
2022/11/16 02:52:01;;;;;;;;;;;;;;;12.64;54.57;99767.88;4951886;28;98036;-66
2022/11/16 02:54:27;;;;;;;;;;;;;;;12.63;54.73;99775.19;4985113;28;128492;-63
2022/11/16 02:56:56;;;;;;;;;;;;;;;12.62;54.41;99770.06;4981692;28;126846;-66
2022/11/16 02:59:25;;;;;;;;;;;;;;;12.61;54.68;99765.75;4965558;28;119377;-63
2022/11/16 03:01:58;;;;;;;;;;;;;;;12.61;54.60;99771.94;4963907;28;97967;-66
2022/11/16 03:04:35;;;;;;;;;;;;;;;12.60;54.62;99769.56;4947634;28;125846;-63
2022/11/16 03:07:02;;;;;;;;;;;;;;;12.58;54.45;99767.16;4950077;28;116651;-63
2022/11/16 03:09:29;;;;;;;;;;;;;;;12.58;54.29;99753.66;4968329;28;126238;-66
2022/11/16 03:12:00;;;;;;;;;;;;;;;12.57;54.64;99746.63;4972640;28;97973;-67
2022/11/16 03:14:48;;;;;;;;;;;;;;;12.56;54.93;99744.22;4951464;28;99006;-67
2022/11/16 03:17:24;;;;;;;;;;;;;;;12.53;54.71;99743.69;4982353;28;98040;-66
2022/11/16 03:20:10;;;;;;;;;;;;;;;12.55;54.44;99746.13;4964492;28;128413;-62
2022/11/16 03:22:43;;;;;;;;;;;;;;;12.54;54.48;99747.22;4983917;28;115806;-67
2022/11/16 03:25:13;;;;;;;;;;;;;;;12.52;54.68;99736.69;4979704;28;122117;-66
2022/11/16 03:27:43;;;;;;;;;;;;;;;12.52;54.76;99736.69;4966627;28;124399;-67
2022/11/16 03:30:23;;;;;;;;;;;;;;;12.51;54.78;99737.81;4967168;28;97947;-63
2022/11/16 03:33:09;;;;;;;;;;;;;;;12.51;54.78;99729.69;4946009;28;113749;-63
2022/11/16 03:35:39;;;;;;;;;;;;;;;12.52;54.63;99725.09;4962333;28;98639;-63
2022/11/16 03:38:05;;;;;;;;;;;;;;;12.51;54.55;99718.88;4968078;28;121450;-66
2022/11/16 03:40:32;;;;;;;;;;;;;;;12.52;54.52;99714.28;4965346;28;126258;-63
2022/11/16 03:42:59;;;;;;;;;;;;;;;12.53;54.81;99716.66;4946621;28;114924;-64
2022/11/16 03:45:25;;;;;;;;;;;;;;;12.55;54.56;99718.28;4969510;28;115319;-62
2022/11/16 03:47:51;;;;;;;;;;;;;;;12.55;54.79;99710.97;4962710;28;127076;-62
2022/11/16 03:50:17;;;;;;;;;;;;;;;12.56;54.24;99723.38;4982291;28;127119;-63
2022/11/16 03:52:43;;;;;;;;;;;;;;;12.56;54.79;99725.28;4982242;28;117014;-63
2022/11/16 03:55:09;;;;;;;;;;;;;;;12.57;54.19;99722.28;4981810;28;127820;-61
2022/11/16 03:57:35;;;;;;;;;;;;;;;12.58;54.52;99726.63;4983149;28;128710;-67
2022/11/16 04:00:01;;;;;;;;;;;;;;;12.58;54.54;99718.50;4983667;28;124885;-62
2022/11/16 04:02:26;;;;;;;;;;;;;;;12.59;54.65;99708.47;4983630;28;97999;-67
2022/11/16 04:24:30;;;;;;;;;;;;;;;12.65;54.43;99710.78;4960161;28;98155;-67
2022/11/16 04:29:45;;;;;;;;;;;;;;;12.66;54.62;99709.69;4980015;28;98067;-62
2022/11/16 04:37:51;;;;;;;;;;;;;;;12.69;54.48;99710.97;4980467;28;97857;-63
2022/11/16 04:40:17;;;;;;;;;;;;;;;12.69;54.48;99714.50;4980164;28;98395;-63
2022/11/16 04:42:49;;;;;;;;;;;;;;;12.69;54.41;99719.09;4981033;28;114965;-67
2022/11/16 04:47:59;;;;;;;;;;;;;;;12.71;54.46;99728.53;4964101;28;97757;-66
2022/11/16 04:50:25;;;;;;;;;;;;;;;12.71;54.52;99725.81;4976056;28;129080;-66
2022/11/16 04:52:51;;;;;;;;;;;;;;;12.71;54.34;99725.81;4962493;28;127573;-66
2022/11/16 04:55:17;;;;;;;;;;;;;;;12.72;54.45;99719.28;4981659;28;117296;-63
2022/11/16 04:57:43;;;;;;;;;;;;;;;12.73;54.77;99722.81;4965180;28;98694;-66
2022/11/16 05:00:10;;;;;;;;;;;;;;;12.73;54.45;99718.22;4981427;28;126030;-66
2022/11/16 05:02:36;;;;;;;;;;;;;;;12.74;54.64;99724.44;4987190;27;98486;-63
2022/11/16 05:05:02;;;;;;;;;;;;;;;12.74;54.42;99719.81;4983781;28;116721;-67
2022/11/16 05:07:27;;;;;;;;;;;;;;;12.74;54.29;99713.59;4981246;28;125534;-67
2022/11/16 05:09:53;;;;;;;;;;;;;;;12.75;54.34;99717.91;4983068;28;107211;-63
2022/11/16 05:12:21;;;;;;;;;;;;;;;12.74;54.73;99716.31;4980654;28;126614;-66
2022/11/16 05:14:47;;;;;;;;;;;;;;;12.76;54.47;99727.63;4984586;28;112251;-66
2022/11/16 05:17:13;;;;;;;;;;;;;;;12.75;54.58;99721.41;4981952;28;126984;-66
2022/11/16 05:22:25;;;;;;;;;;;;;;;12.76;54.77;99720.31;4949786;28;98439;-63
2022/11/16 05:24:51;;;;;;;;;;;;;;;12.77;54.55;99711.09;4982886;28;117475;-66
2022/11/16 05:27:17;;;;;;;;;;;;;;;12.77;54.38;99703.00;4980859;28;98991;-67
2022/11/16 05:29:43;;;;;;;;;;;;;;;12.78;54.23;99704.59;4983114;28;101937;-62
2022/11/16 05:32:11;;;;;;;;;;;;;;;12.77;54.76;99703.00;4982765;27;126861;-63
2022/11/16 05:34:37;;;;;;;;;;;;;;;12.78;54.37;99706.50;4983193;28;97961;-63
2022/11/16 05:37:03;;;;;;;;;;;;;;;12.79;54.66;99702.69;4983758;28;98768;-62
2022/11/16 05:39:29;;;;;;;;;;;;;;;12.81;54.60;99699.66;4979297;28;119730;-62
2022/11/16 05:41:55;;;;;;;;;;;;;;;12.80;54.58;99698.06;4979544;28;127736;-62
2022/11/16 05:44:21;;;;;;;;;;;;;;;12.81;54.69;99705.06;4980053;28;113528;-66
2022/11/16 05:46:47;;;;;;;;;;;;;;;12.81;54.39;99711.31;4981506;28;105165;-66
2022/11/16 05:49:13;;;;;;;;;;;;;;;12.81;54.36;99711.31;4983766;28;98949;-67
2022/11/16 05:51:40;;;;;;;;;;;;;;;12.82;54.40;99718.31;4982169;28;98083;-66
2022/11/16 05:54:06;;;;;;;;;;;;;;;12.83;54.44;99721.81;4980940;28;97955;-62
2022/11/16 05:56:32;;;;;;;;;;;;;;;12.83;54.57;99717.22;4980933;28;128628;-67
2022/11/16 05:58:58;;;;;;;;;;;;;;;12.83;54.52;99708.31;4978709;28;98851;-66
2022/11/16 06:01:24;;;;;;;;;;;;;;;12.84;54.42;99716.09;4962731;28;99620;-62
2022/11/16 06:03:50;;;;;;;;;;;;;;;12.85;54.49;99715.03;4978091;28;113367;-66
2022/11/16 06:06:16;;;;;;;;;;;;;;;12.86;54.58;99705.78;4969158;28;124720;-62
2022/11/16 06:08:41;;;;;;;;;;;;;;;12.86;54.39;99718.53;4979668;28;100772;-66
2022/11/16 06:11:08;;;;;;;;;;;;;;;12.88;54.55;99719.00;4982085;28;123793;-66
2022/11/16 06:13:34;;;;;;;;;;;;;;;12.88;54.32;99716.31;4985704;28;97767;-62
2022/11/16 06:16:00;;;;;;;;;;;;;;;12.89;54.58;99704.38;4966203;28;126398;-62
2022/11/16 06:18:26;;;;;;;;;;;;;;;12.89;54.67;99713.31;4965745;28;114685;-62
2022/11/16 06:20:52;;;;;;;;;;;;;;;12.91;54.52;99707.59;4934304;28;128033;-66
2022/11/16 06:23:18;;;;;;;;;;;;;;;12.92;54.25;99710.00;4984038;28;116538;-66
2022/11/16 06:25:43;;;;;;;;;;;;;;;12.92;54.66;99710.00;4979173;28;126858;-62
2022/11/16 06:28:09;;;;;;;;;;;;;;;12.94;54.50;99709.72;4959391;28;126541;-62
2022/11/16 06:30:37;;;;;;;;;;;;;;;12.94;54.67;99715.91;4964917;28;126156;-62
2022/11/16 06:33:03;;;;;;;;;;;;;;;12.95;54.45;99714.81;4985056;28;98895;-67
2022/11/16 06:35:29;;;;;;;;;;;;;;;12.97;54.31;99722.63;4983363;28;107050;-63
2022/11/16 06:37:56;;;;;;;;;;;;;;;12.99;54.27;99717.72;4983248;28;127792;-62
2022/11/16 06:40:25;;;;;;;;;;;;;;;12.99;54.46;99718.50;4984903;28;97939;-67
2022/11/16 06:42:50;;;;;;;;;;;;;;;13.02;54.24;99725.22;4982226;28;117752;-62
2022/11/16 06:45:16;;;;;;;;;;;;;;;13.04;54.19;99731.13;4983867;28;98709;-67
2022/11/16 06:47:42;;;;;;;;;;;;;;;13.05;54.58;99718.41;4981288;28;124226;-62
2022/11/16 06:50:09;;;;;;;;;;;;;;;13.07;54.47;99725.13;4985159;28;127503;-62
2022/11/16 06:52:34;;;;;;;;;;;;;;;13.10;54.38;99726.44;4981596;28;112240;-66
2022/11/16 06:55:00;;;;;;;;;;;;;;;13.11;54.57;99728.81;4985341;28;127827;-67
2022/11/16 06:57:26;;;;;;;;;;;;;;;13.14;54.14;99719.31;4984738;28;99016;-66
2022/11/16 06:59:52;;;;;;;;;;;;;;;13.16;54.10;99722.50;4984152;28;127517;-62
2022/11/16 07:02:20;;;;;;;;;;;;;;;13.17;54.34;99724.13;4982584;28;117432;-62
2022/11/16 07:04:46;;;;;;;;;;;;;;;13.18;54.21;99723.81;4948363;28;100201;-63
2022/11/16 07:07:12;;;;;;;;;;;;;;;13.20;54.12;99728.91;4983382;28;100786;-66
2022/11/16 07:09:37;;;;;;;;;;;;;;;13.21;54.32;99728.63;4982090;28;126197;-67
2022/11/16 07:12:03;;;;;;;;;;;;;;;13.23;54.09;99728.34;4982682;28;117720;-62
2022/11/16 07:14:29;;;;;;;;;;;;;;;13.25;54.24;99728.84;4965973;28;100671;-66
2022/11/16 07:16:55;;;;;;;;;;;;;;;13.26;53.93;99722.34;4983884;28;127629;-62
2022/11/16 07:19:21;;;;;;;;;;;;;;;13.27;54.43;99711.19;4983600;28;99846;-63
2022/11/16 07:21:47;;;;;;;;;;;;;;;13.30;54.10;99725.25;4986858;28;115272;-63
2022/11/16 07:24:13;;;;;;;;;;;;;;;13.32;54.04;99726.53;4983250;28;128433;-63
2022/11/16 07:26:39;;;;;;;;;;;;;;;13.34;54.35;99734.34;4968677;28;127198;-62
2022/11/16 07:29:05;;;;;;;;;;;;;;;13.34;54.27;99737.84;4970707;28;125421;-62
2022/11/16 07:31:31;;;;;;;;;;;;;;;13.36;54.08;99724.00;4998265;28;98545;-67
2022/11/16 07:33:57;;;;;;;;;;;;;;;13.37;54.21;99717.50;4961288;28;128130;-62
2022/11/16 07:36:23;;;;;;;;;;;;;;;13.39;54.32;99726.91;4980908;28;114864;-62
2022/11/16 07:38:49;;;;;;;;;;;;;;;13.41;54.18;99718.50;4981784;28;97939;-63
2022/11/16 07:41:17;;;;;;;;;;;;;;;13.42;54.41;99715.50;4983001;28;117706;-63
2022/11/16 07:43:42;;;;;;;;;;;;;;;13.44;54.06;99717.88;4983713;28;99269;-66
2022/11/16 07:46:13;;;;;;;;;;;;;;;13.46;54.25;99716.47;4983699;28;99273;-67
2022/11/16 07:48:41;;;;;;;;;;;;;;;13.48;54.41;99714.28;4978916;28;97802;-63
2022/11/16 07:51:08;;;;;;;;;;;;;;;13.48;53.98;99706.16;4978356;28;99252;-63
2022/11/16 07:53:34;;;;;;;;;;;;;;;13.51;54.37;99707.44;4982258;28;127756;-66
2022/11/16 07:56:00;;;;;;;;;;;;;;;13.53;54.04;99707.94;4984001;28;127756;-67
2022/11/16 07:58:30;;;;;;;;;;;;;;;13.56;54.29;99715.47;4981821;28;127060;-67
2022/11/16 08:01:11;;;;;;;;;;;;;;;13.58;54.03;99698.91;4958607;28;98035;-63
2022/11/16 08:03:38;;;;;;;;;;;;;;;13.59;54.42;99701.28;4983421;28;98637;-66
2022/11/16 08:06:05;;;;;;;;;;;;;;;13.60;54.44;99702.91;4982833;28;118169;-62
2022/11/16 08:08:31;;;;;;;;;;;;;;;13.63;54.35;99704.19;4956454;28;122135;-67
2022/11/16 08:11:04;;;;;;;;;;;;;;;13.64;54.37;99700.41;4980279;28;117488;-67
2022/11/16 08:13:32;;;;;;;;;;;;;;;13.65;54.05;99699.28;4980789;28;127745;-63
2022/11/16 08:16:28;;;;;;;;;;;;;;;13.65;53.98;99696.59;4984086;28;99440;-63
2022/11/16 08:18:54;;;;;;;;;;;;;;;13.67;54.36;99705.97;4967782;28;98638;-66
2022/11/16 08:21:20;;;;;;;;;;;;;;;13.68;54.19;99709.53;4982893;28;97977;-67
2022/11/16 08:23:46;;;;;;;;;;;;;;;13.69;54.18;99698.38;4984885;28;126892;-63
2022/11/16 08:26:14;;;;;;;;;;;;;;;13.71;54.33;99696.13;4982161;28;109399;-63
2022/11/16 08:28:40;;;;;;;;;;;;;;;13.72;54.31;99697.75;4984136;27;97951;-67
2022/11/16 08:31:07;;;;;;;;;;;;;;;13.71;53.98;99696.13;4965513;28;97987;-63
2022/11/16 08:33:33;;;;;;;;;;;;;;;13.73;54.05;99701.28;4980887;27;99158;-66
2022/11/16 08:36:06;;;;;;;;;;;;;;;13.73;54.22;99693.94;4981873;28;127176;-67
2022/11/16 08:38:32;;;;;;;;;;;;;;;13.74;54.41;99694.75;4978495;28;127509;-67
2022/11/16 08:40:58;;;;;;;;;;;;;;;13.77;54.00;99696.03;4980513;28;115533;-62
2022/11/16 08:43:24;;;;;;;;;;;;;;;13.78;53.96;99701.13;4979834;28;101342;-66
2022/11/16 08:45:51;;;;;;;;;;;;;;;13.79;53.96;99697.31;4980583;28;117428;-63
2022/11/16 08:48:17;;;;;;;;;;;;;;;13.81;54.22;99680.78;4980580;28;99325;-67
2022/11/16 08:50:43;;;;;;;;;;;;;;;13.84;54.40;99682.88;4982830;28;117512;-67
2022/11/16 08:53:09;;;;;;;;;;;;;;;13.86;54.24;99684.16;4982120;28;116689;-63
2022/11/16 08:55:35;;;;;;;;;;;;;;;13.86;54.29;99672.53;4982034;28;98396;-62
2022/11/16 08:58:01;;;;;;;;;;;;;;;13.90;53.84;99678.91;4981263;28;126589;-67
2022/11/16 09:00:27;;;;;;;;;;;;;;;13.91;53.99;99670.50;4982381;28;116284;-66
2022/11/16 09:02:53;;;;;;;;;;;;;;;13.95;53.95;99685.03;4981186;28;122333;-63
2022/11/16 09:05:19;;;;;;;;;;;;;;;13.95;54.29;99676.91;4955695;28;128384;-63
2022/11/16 09:07:45;;;;;;;;;;;;;;;13.98;54.17;99684.41;4978976;28;126636;-66
2022/11/16 09:10:11;;;;;;;;;;;;;;;14.00;54.11;99682.19;4961115;28;114033;-67
2022/11/16 09:12:37;;;;;;;;;;;;;;;14.03;54.06;99679.97;4980229;28;120693;-63
2022/11/16 09:15:04;;;;;;;;;;;;;;;14.04;54.18;99687.78;4981053;28;98393;-66
2022/11/16 09:17:30;;;;;;;;;;;;;;;14.05;54.15;99686.69;4980590;28;105112;-66
2022/11/16 09:19:55;;;;;;;;;;;;;;;14.06;54.15;99690.19;4986863;28;117543;-67
2022/11/16 09:22:21;;;;;;;;;;;;;;;14.06;53.96;99690.19;4978583;28;98797;-66
2022/11/16 09:24:47;;;;;;;;;;;;;;;14.06;54.31;99680.13;4981373;28;109728;-63
2022/11/16 09:27:13;;;;;;;;;;;;;;;14.09;53.90;99682.25;4980041;27;125108;-63
2022/11/16 09:29:39;;;;;;;;;;;;;;;14.11;54.12;99681.91;4983371;28;99233;-67
2022/11/16 09:32:05;;;;;;;;;;;;;;;14.12;54.41;99686.25;4966948;28;128653;-63
2022/11/16 09:34:33;;;;;;;;;;;;;;;14.14;54.17;99681.31;4981233;28;128323;-67
2022/11/16 09:36:59;;;;;;;;;;;;;;;14.17;53.91;99686.91;4980329;28;118966;-63
2022/11/16 09:39:26;;;;;;;;;;;;;;;14.19;53.92;99683.91;4982110;28;99233;-63
2022/11/16 09:42:14;;;;;;;;;;;;;;;14.19;53.75;99681.19;4980517;28;98011;-67
2022/11/16 09:45:03;;;;;;;;;;;;;;;14.21;53.89;99687.88;4983496;28;98935;-63
2022/11/16 09:48:02;;;;;;;;;;;;;;;14.20;53.97;99683.59;4971026;28;98205;-66
2022/11/16 09:51:01;;;;;;;;;;;;;;;14.19;54.19;99679.28;4977703;28;116790;-66
2022/11/16 09:53:41;;;;;;;;;;;;;;;14.20;54.28;99678.16;4965068;28;99091;-63
2022/11/16 09:56:19;;;;;;;;;;;;;;;14.20;54.23;99675.47;4945372;28;98430;-67
2022/11/16 09:58:57;;;;;;;;;;;;;;;14.22;54.19;99675.13;4950530;28;100413;-63
2022/11/16 10:01:35;;;;;;;;;;;;;;;14.23;53.86;99671.34;4987350;28;97772;-67
2022/11/16 10:04:11;;;;;;;;;;;;;;;14.23;53.90;99663.22;4965951;28;99733;-63
2022/11/16 10:06:57;;;;;;;;;;;;;;;14.21;54.35;99673.53;4948807;28;121517;-67
2022/11/16 10:09:24;;;;;;;;;;;;;;;14.20;54.45;99664.63;4987595;27;98125;-66
2022/11/16 10:12:28;;;;;;;;;;;;;;;14.20;54.11;99666.53;4986394;28;98063;-67
2022/11/16 10:15:03;;;;;;;;;;;;;;;14.20;54.32;99658.41;4972682;28;98964;-66
2022/11/16 10:18:06;;;;;;;;;;;;;;;14.19;54.44;99660.31;4962542;28;98882;-67
2022/11/16 10:20:44;;;;;;;;;;;;;;;14.20;54.28;99659.19;4988078;28;125730;-66
2022/11/16 10:23:21;;;;;;;;;;;;;;;14.20;54.31;99656.50;4987802;28;98097;-63
2022/11/16 10:25:52;;;;;;;;;;;;;;;14.21;54.07;99649.16;4982449;27;128367;-64
2022/11/16 10:28:24;;;;;;;;;;;;;;;14.21;54.10;99644.53;4964159;28;98080;-67
2022/11/16 10:31:07;;;;;;;;;;;;;;;14.22;54.30;99637.97;4982871;28;98704;-63
2022/11/16 10:33:35;;;;;;;;;;;;;;;14.23;54.21;99631.47;4953553;28;113422;-67
2022/11/16 10:36:03;;;;;;;;;;;;;;;14.27;54.01;99641.69;4979849;28;99398;-63
2022/11/16 10:38:29;;;;;;;;;;;;;;;14.25;54.07;99626.53;4967569;28;98327;-66
2022/11/16 10:41:21;;;;;;;;;;;;;;;14.29;54.00;99634.84;4984183;27;98388;-66
2022/11/16 10:43:47;;;;;;;;;;;;;;;14.30;54.33;99635.63;4968080;28;98209;-63
2022/11/16 10:46:32;;;;;;;;;;;;;;;14.31;53.97;99635.34;4963583;28;129107;-63
2022/11/16 10:49:06;;;;;;;;;;;;;;;14.32;53.88;99623.38;4965316;28;99131;-67
2022/11/16 10:51:32;;;;;;;;;;;;;;;14.33;53.89;99626.88;4964063;28;98625;-63
2022/11/16 10:53:58;;;;;;;;;;;;;;;14.34;54.12;99623.84;4987590;28;116419;-63
2022/11/16 10:56:33;;;;;;;;;;;;;;;14.33;54.35;99624.97;4982439;27;127758;-63
2022/11/16 10:58:59;;;;;;;;;;;;;;;14.31;54.04;99616.38;4984748;28;98438;-63
2022/11/16 11:01:39;;;;;;;;;;;;;;;14.31;54.30;99615.56;4984145;28;99545;-67
2022/11/16 11:04:18;;;;;;;;;;;;;;;14.30;54.14;99612.03;4981458;28;104585;-63
2022/11/16 11:06:45;;;;;;;;;;;;;;;14.29;54.27;99612.34;4984602;28;98289;-63
2022/11/16 11:09:25;;;;;;;;;;;;;;;14.28;54.36;99611.56;4981946;28;99063;-66
2022/11/16 11:14:56;;;;;;;;;;;;;;;14.25;54.13;99604.84;4981753;28;97904;-66
2022/11/16 11:17:22;;;;;;;;;;;;;;;14.26;54.29;99602.94;4971479;28;126109;-67
2022/11/16 11:19:55;;;;;;;;;;;;;;;14.26;54.32;99600.22;4983275;28;127552;-63
2022/11/16 11:22:21;;;;;;;;;;;;;;;14.26;54.46;99597.50;4960461;27;127537;-63
2022/11/16 11:24:47;;;;;;;;;;;;;;;14.25;54.40;99601.34;4965502;28;115468;-62
2022/11/16 11:27:13;;;;;;;;;;;;;;;14.25;54.41;99609.47;4982991;28;128761;-63
2022/11/16 11:29:39;;;;;;;;;;;;;;;14.25;54.29;99604.03;4981947;28;128012;-66
2022/11/16 11:32:06;;;;;;;;;;;;;;;14.25;54.47;99607.56;4984179;28;98635;-67
2022/11/16 11:34:49;;;;;;;;;;;;;;;14.24;54.26;99605.16;4983751;28;118035;-63
2022/11/16 11:37:20;;;;;;;;;;;;;;;14.24;54.17;99599.75;4956404;28;123262;-63
2022/11/16 11:39:46;;;;;;;;;;;;;;;14.23;54.32;99598.94;4967742;28;99150;-63
2022/11/16 11:42:12;;;;;;;;;;;;;;;14.23;54.23;99601.66;4947521;28;122772;-63
2022/11/16 11:44:43;;;;;;;;;;;;;;;14.22;54.39;99602.75;4980470;28;98894;-67
2022/11/16 11:47:27;;;;;;;;;;;;;;;14.21;54.32;99606.56;4950799;28;99082;-65
2022/11/16 11:50:09;;;;;;;;;;;;;;;14.21;54.48;99603.06;4963224;28;127504;-63
2022/11/16 11:53:01;;;;;;;;;;;;;;;14.23;54.51;99600.88;4960667;28;98479;-62
2022/11/16 11:55:26;;;;;;;;;;;;;;;14.23;54.25;99606.28;4946176;28;98202;-66
2022/11/16 11:57:52;;;;;;;;;;;;;;;14.24;54.27;99603.25;4967341;28;126434;-67
2022/11/16 12:00:19;;;;;;;;;;;;;;;14.24;54.34;99602.47;4970531;28;98797;-67
2022/11/16 12:03:15;;;;;;;;;;;;;;;14.24;53.99;99603.25;4981346;28;124967;-67
2022/11/16 12:06:04;;;;;;;;;;;;;;;14.25;54.42;99606.75;4984509;28;97835;-63
2022/11/16 12:08:40;;;;;;;;;;;;;;;14.24;54.02;99602.47;4965994;28;98565;-67
2022/11/16 12:11:26;;;;;;;;;;;;;;;14.22;54.06;99604.66;4960984;28;124378;-63
2022/11/16 12:14:03;;;;;;;;;;;;;;;14.21;53.97;99605.78;4982567;28;103955;-67
2022/11/16 12:16:45;;;;;;;;;;;;;;;14.19;54.13;99599.88;4963439;28;111206;-63
2022/11/16 12:19:41;;;;;;;;;;;;;;;14.17;54.44;99608.31;4986246;28;116475;-67
2022/11/16 12:22:23;;;;;;;;;;;;;;;14.15;54.42;99594.28;4981365;27;98576;-63
2022/11/16 12:24:59;;;;;;;;;;;;;;;14.17;54.41;99605.59;4968286;28;98014;-63
2022/11/16 12:27:43;;;;;;;;;;;;;;;14.15;54.38;99601.63;4983063;28;97958;-62
2022/11/16 12:30:16;;;;;;;;;;;;;;;14.14;54.12;99608.13;4963958;28;128978;-63
2022/11/16 12:33:14;;;;;;;;;;;;;;;14.12;54.17;99600.34;4967413;28;99298;-62
2022/11/16 12:35:52;;;;;;;;;;;;;;;14.12;54.13;99602.25;4982021;28;98558;-66
2022/11/16 12:38:31;;;;;;;;;;;;;;;14.12;54.08;99596.81;4962150;28;110629;-63
2022/11/16 12:41:27;;;;;;;;;;;;;;;14.09;54.39;99595.53;4967244;28;126446;-63
2022/11/16 12:44:04;;;;;;;;;;;;;;;14.10;54.08;99599.03;4981410;28;98431;-63
2022/11/16 12:46:56;;;;;;;;;;;;;;;14.09;54.28;99592.81;4966014;28;102312;-67
2022/11/16 12:49:53;;;;;;;;;;;;;;;14.08;54.21;99593.94;4964106;27;98979;-67
2022/11/16 12:52:42;;;;;;;;;;;;;;;14.08;54.38;99590.44;4983450;27;99013;-67
2022/11/16 12:55:37;;;;;;;;;;;;;;;14.07;54.19;99586.94;4977350;27;98951;-63
2022/11/16 12:58:28;;;;;;;;;;;;;;;14.06;54.34;99589.94;4964626;28;125485;-66
2022/11/16 13:01:01;;;;;;;;;;;;;;;14.05;54.09;99591.03;4965617;28;98224;-62
2022/11/16 13:03:53;;;;;;;;;;;;;;;14.03;54.07;99590.53;4982508;27;98838;-62
2022/11/16 13:06:20;;;;;;;;;;;;;;;14.02;54.35;99591.66;4948296;28;122610;-67
2022/11/16 13:09:07;;;;;;;;;;;;;;;14.00;54.08;99591.97;4965384;28;98191;-63
2022/11/16 13:11:34;;;;;;;;;;;;;;;13.99;54.20;99591.19;4967452;28;117718;-67
2022/11/16 13:14:03;;;;;;;;;;;;;;;13.99;54.22;99587.69;4954328;28;128137;-67
2022/11/16 13:16:28;;;;;;;;;;;;;;;13.98;54.18;99581.44;4944719;28;125572;-67
2022/11/16 13:18:54;;;;;;;;;;;;;;;13.98;54.54;99580.63;4982954;27;109053;-63
2022/11/16 13:21:42;;;;;;;;;;;;;;;13.96;54.54;99588.28;4983136;27;97729;-67
2022/11/16 13:24:15;;;;;;;;;;;;;;;13.96;54.27;99582.88;4960554;28;127961;-63
2022/11/16 13:26:44;;;;;;;;;;;;;;;13.95;54.24;99584.78;4979560;28;126661;-67
2022/11/16 13:29:27;;;;;;;;;;;;;;;13.95;54.49;99582.09;4947633;27;127580;-66
2022/11/16 13:32:30;;;;;;;;;;;;;;;13.94;54.50;99582.38;4980839;27;97855;-67
2022/11/16 13:34:57;;;;;;;;;;;;;;;13.93;54.34;99583.50;4979621;28;98655;-62
2022/11/16 13:37:38;;;;;;;;;;;;;;;13.92;54.20;99582.69;4961290;28;114805;-67